Time;durP1;ratioP1;P1;durP2;ratioP2;P2;SDS_P1;SDS_P2;PMS_P1;PMS_P2;Temp;Humidity;BMP_temperature;BMP_pressure;BME280_temperature;BME280_humidity;BME280_pressure;Samples;Min_cycle;Max_cycle;Signal;HPM_P1;HPM_P2
2022/05/06 00:00:01;;;;;;;20.45;8.60;;;;;;;10.57;100.00;102597.81;5048604;28;20475;-89
2022/05/06 00:02:26;;;;;;;17.00;8.73;;;;;;;10.46;100.00;102598.88;5014241;28;20040;-88
2022/05/06 00:04:53;;;;;;;19.48;9.55;;;;;;;10.42;100.00;102591.88;5038468;28;20070;-88
2022/05/06 00:07:19;;;;;;;21.15;10.00;;;;;;;10.41;100.00;102599.81;5040555;28;20461;-89
2022/05/06 00:09:45;;;;;;;19.58;9.88;;;;;;;10.50;100.00;102602.34;5040310;28;20040;-90
2022/05/06 00:12:12;;;;;;;20.48;9.68;;;;;;;10.55;100.00;102599.59;5020614;28;20033;-89
2022/05/06 00:14:39;;;;;;;21.17;10.05;;;;;;;10.58;100.00;102595.13;5020927;28;20032;-88
2022/05/06 00:17:05;;;;;;;17.95;9.30;;;;;;;10.54;100.00;102593.44;5012572;28;20518;-89
2022/05/06 00:19:31;;;;;;;20.85;9.68;;;;;;;10.54;100.00;102590.78;5035803;28;20139;-89
2022/05/06 00:21:57;;;;;;;20.25;10.93;;;;;;;10.52;100.00;102589.94;5031202;28;20136;-89
2022/05/06 00:24:22;;;;;;;22.92;10.75;;;;;;;10.56;100.00;102589.00;5025936;28;20029;-89
2022/05/06 00:26:47;;;;;;;17.92;9.70;;;;;;;10.71;100.00;102585.19;5064542;28;20129;-90
2022/05/06 00:29:13;;;;;;;18.95;9.63;;;;;;;10.80;100.00;102584.16;5020306;28;20074;-88
2022/05/06 00:31:38;;;;;;;18.23;9.15;;;;;;;10.84;100.00;102580.56;5037558;28;20522;-88
2022/05/06 00:34:04;;;;;;;17.90;9.63;;;;;;;10.75;100.00;102576.28;5033115;28;20119;-88
2022/05/06 00:36:30;;;;;;;19.70;9.57;;;;;;;10.63;100.00;102584.47;5035572;28;20031;-90
2022/05/06 00:38:55;;;;;;;17.15;9.63;;;;;;;10.54;100.00;102579.31;5037805;28;20036;-90
2022/05/06 00:41:21;;;;;;;19.13;9.55;;;;;;;10.48;100.00;102578.50;5037494;28;20472;-90
2022/05/06 00:43:46;;;;;;;20.40;10.23;;;;;;;10.45;100.00;102583.88;5037791;28;20036;-90
2022/05/06 00:46:15;;;;;;;18.98;9.55;;;;;;;10.42;100.00;102580.38;5039198;28;20049;-88
2022/05/06 00:48:45;;;;;;;20.42;10.93;;;;;;;10.44;100.00;102582.13;5038150;28;20044;-89
2022/05/06 00:51:17;;;;;;;17.95;9.68;;;;;;;10.46;100.00;102585.63;5053066;28;20139;-89
2022/05/06 00:53:47;;;;;;;22.73;10.93;;;;;;;10.46;100.00;102587.38;5062296;28;20100;-88
2022/05/06 00:56:17;;;;;;;21.67;10.68;;;;;;;10.57;100.00;102579.28;5057606;28;20039;-90
2022/05/06 00:58:44;;;;;;;25.13;10.80;;;;;;;10.69;100.00;102579.06;5056806;28;20052;-90
2022/05/06 01:01:09;;;;;;;26.35;11.77;;;;;;;10.76;100.00;102579.84;5037654;28;20438;-90
2022/05/06 01:03:35;;;;;;;21.58;10.57;;;;;;;10.83;100.00;102584.09;5039892;28;20040;-90
2022/05/06 01:06:13;;;;;;;24.38;10.15;;;;;;;10.80;100.00;102582.38;5046169;28;20052;-87
2022/05/06 01:08:38;;;;;;;19.63;10.18;;;;;;;10.78;100.00;102586.84;5065369;28;20032;-90
2022/05/06 01:11:05;;;;;;;20.20;10.80;;;;;;;10.73;100.00;102580.75;5044938;28;20078;-86
2022/05/06 01:13:31;;;;;;;22.42;11.10;;;;;;;10.66;100.00;102579.09;5071349;28;20063;-89
2022/05/06 01:16:15;;;;;;;26.02;10.60;;;;;;;10.64;100.00;102583.56;5055343;28;20040;-90
2022/05/06 01:18:44;;;;;;;22.95;11.05;;;;;;;10.63;100.00;102585.34;5038828;28;20028;-88
2022/05/06 01:21:15;;;;;;;21.02;10.48;;;;;;;10.74;100.00;102581.63;5053957;28;20107;-90
2022/05/06 01:23:40;;;;;;;26.75;11.52;;;;;;;10.69;100.00;102584.38;5054949;28;20032;-88
2022/05/06 01:26:06;;;;;;;25.83;11.43;;;;;;;10.61;100.00;102595.09;5055303;28;20408;-89
2022/05/06 01:28:34;;;;;;;21.35;10.63;;;;;;;10.67;100.00;102580.00;5035691;28;20056;-89
2022/05/06 01:31:01;;;;;;;24.17;10.93;;;;;;;10.64;100.00;102588.88;5055548;28;20028;-90
2022/05/06 01:33:28;;;;;;;23.40;11.25;;;;;;;10.60;100.00;102580.09;5035710;28;20404;-89
2022/05/06 01:36:04;;;;;;;25.05;11.38;;;;;;;10.61;100.00;102584.50;5057751;28;20441;-88
2022/05/06 01:38:50;;;;;;;26.33;12.05;;;;;;;10.67;100.00;102578.22;5081372;28;20028;-89
2022/05/06 01:41:22;;;;;;;29.08;10.32;;;;;;;10.59;100.00;102586.28;5054807;28;20031;-88
2022/05/06 01:43:52;;;;;;;;;;;;;;;10.51;100.00;102588.19;5072758;28;20033;-89
2022/05/06 01:46:20;;;;;;;27.83;10.65;;;;;;;10.40;100.00;102588.38;5053744;28;19923;-88
2022/05/06 01:48:47;;;;;;;45.53;10.85;;;;;;;10.37;100.00;102590.19;5053649;28;20414;-88
2022/05/06 01:51:19;;;;;;;23.17;10.65;;;;;;;10.37;100.00;102592.84;5072269;28;20028;-88
2022/05/06 01:53:45;;;;;;;;;;;;;;;10.31;100.00;102586.69;5072615;28;20107;-88
2022/05/06 01:56:17;;;;;;;31.98;10.80;;;;;;;10.28;100.00;102588.50;5059805;28;19903;-89
2022/05/06 01:58:44;;;;;;;;;;;;;;;10.18;100.00;102587.81;5058101;28;20024;-90
2022/05/06 02:01:29;;;;;;;32.20;12.50;;;;;;;10.22;100.00;102597.44;5035239;28;20384;-88
2022/05/06 02:06:39;;;;;;;30.95;13.40;;;;;;;10.31;100.00;102588.50;5049313;28;20043;-89
2022/05/06 02:09:05;;;;;;;42.00;14.70;;;;;;;10.33;100.00;102591.97;5027485;28;20040;-89
2022/05/06 02:11:30;;;;;;;29.67;13.32;;;;;;;10.35;100.00;102579.59;5043239;28;20078;-88
2022/05/06 02:13:56;;;;;;;39.30;15.13;;;;;;;10.42;100.00;102590.97;5027886;28;20036;-89
2022/05/06 02:16:21;;;;;;;57.75;15.32;;;;;;;10.45;100.00;102586.50;5027721;28;20491;-91
2022/05/06 02:18:48;;;;;;;41.38;16.30;;;;;;;10.39;100.00;102593.69;5034913;28;20078;-91
2022/05/06 02:21:13;;;;;;;41.17;15.48;;;;;;;10.43;100.00;102588.31;5026574;28;20032;-91
2022/05/06 02:23:39;;;;;;;36.65;15.23;;;;;;;10.46;100.00;102582.09;5047814;28;20063;-91
2022/05/06 02:26:23;;;;;;;31.40;14.15;;;;;;;10.50;100.00;102581.16;5051286;28;20036;-90
2022/05/06 02:28:48;;;;;;;43.97;13.85;;;;;;;10.48;100.00;102586.44;5029716;28;20090;-90
2022/05/06 02:33:58;;;;;;;40.22;13.80;;;;;;;10.36;100.00;102597.28;5050258;28;20047;-90
2022/05/06 02:36:23;;;;;;;35.90;16.02;;;;;;;10.38;100.00;102589.28;5037571;28;20029;-90
2022/05/06 02:38:49;;;;;;;45.33;14.80;;;;;;;10.37;100.00;102587.53;5045311;28;20032;-89
2022/05/06 02:41:15;;;;;;;28.45;13.40;;;;;;;10.37;100.00;102585.78;5041224;28;20405;-90
2022/05/06 02:43:42;;;;;;;38.80;15.18;;;;;;;10.38;100.00;102590.16;5034450;28;20032;-89
2022/05/06 02:46:07;;;;;;;45.60;15.98;;;;;;;10.41;100.00;102594.53;5029745;28;20514;-90
2022/05/06 02:48:33;;;;;;;36.28;15.90;;;;;;;10.42;100.00;102604.22;5045474;28;20052;-90
2022/05/06 02:50:58;;;;;;;42.17;16.00;;;;;;;10.41;100.00;102600.72;5057930;28;20090;-89
2022/05/06 02:53:25;;;;;;;38.92;17.45;;;;;;;10.44;100.00;102595.34;5045244;28;20040;-89
2022/05/06 02:55:50;;;;;;;40.72;17.25;;;;;;;10.50;100.00;102599.69;5030213;28;20090;-89
2022/05/06 02:58:16;;;;;;;45.42;18.17;;;;;;;10.51;100.00;102595.25;5038856;28;20391;-88
2022/05/06 03:00:43;;;;;;;41.83;18.23;;;;;;;10.53;100.00;102598.78;5028315;28;20127;-89
2022/05/06 03:03:09;;;;;;;38.40;15.82;;;;;;;10.54;100.00;102604.03;5043256;28;20037;-88
2022/05/06 03:05:34;;;;;;;46.13;15.52;;;;;;;10.49;100.00;102601.44;5057756;28;20032;-89
2022/05/06 03:08:00;;;;;;;27.73;14.20;;;;;;;10.45;100.00;102594.47;5039704;28;20035;-90
2022/05/06 03:10:25;;;;;;;24.25;13.27;;;;;;;10.43;100.00;102592.75;5042578;28;20426;-90
2022/05/06 03:12:55;;;;;;;26.92;13.60;;;;;;;10.37;100.00;102587.53;5038903;28;20132;-89
2022/05/06 03:15:21;;;;;;;26.10;12.52;;;;;;;10.33;100.00;102576.97;5058697;28;20025;-89
2022/05/06 03:17:46;;;;;;;28.20;12.60;;;;;;;10.31;100.00;102580.53;5032860;28;20036;-89
2022/05/06 03:20:13;;;;;;;24.73;12.93;;;;;;;10.26;100.00;102583.25;5038992;28;20499;-90
2022/05/06 03:22:49;;;;;;;29.20;13.38;;;;;;;10.32;100.00;102582.31;5048586;28;20051;-91
2022/05/06 03:25:15;;;;;;;25.50;12.98;;;;;;;10.32;100.00;102583.16;5048701;28;20047;-91
2022/05/06 03:28:00;;;;;;;31.23;12.75;;;;;;;10.35;100.00;102582.25;5036939;28;20390;-89
2022/05/06 03:30:26;;;;;;;26.30;13.20;;;;;;;10.35;100.00;102586.69;5051314;28;20024;-87
2022/05/06 03:32:55;;;;;;;46.22;14.38;;;;;;;10.25;100.00;102586.78;5069897;28;20028;-91
2022/05/06 03:35:21;;;;;;;29.77;14.32;;;;;;;10.29;100.00;102583.22;5059272;28;20025;-88
2022/05/06 03:37:54;;;;;;;32.13;15.00;;;;;;;10.37;100.00;102584.88;5056291;28;20066;-86
2022/05/06 03:40:21;;;;;;;27.02;14.07;;;;;;;10.35;100.00;102587.53;5045445;28;20034;-90
2022/05/06 03:42:46;;;;;;;40.38;14.48;;;;;;;10.33;100.00;102582.25;5042040;28;20380;-91
2022/05/06 03:45:13;;;;;;;26.90;14.10;;;;;;;10.35;100.00;102574.28;5045345;28;20043;-88
2022/05/06 03:47:38;;;;;;;30.02;14.05;;;;;;;10.29;100.00;102574.38;5035506;28;20039;-90
2022/05/06 03:52:49;;;;;;;25.35;12.50;;;;;;;10.22;100.00;102578.00;5052434;28;20121;-89
2022/05/06 03:55:15;;;;;;;21.15;11.77;;;;;;;10.17;100.00;102575.47;5076267;28;20123;-89
2022/05/06 03:57:42;;;;;;;26.42;11.88;;;;;;;10.14;100.00;102579.03;5058379;28;20044;-89
2022/05/06 04:00:09;;;;;;;22.98;11.55;;;;;;;10.12;100.00;102579.94;5064556;28;20005;-88
2022/05/06 04:02:36;;;;;;;25.50;11.98;;;;;;;10.10;100.00;102579.09;5087193;28;20100;-90
2022/05/06 04:05:03;;;;;;;22.05;12.15;;;;;;;10.08;100.00;102594.13;5050649;28;20013;-89
2022/05/06 04:07:28;;;;;;;42.35;12.90;;;;;;;9.99;100.00;102588.06;5095852;28;20027;-88
2022/05/06 04:09:54;;;;;;;30.25;12.45;;;;;;;10.01;100.00;102588.03;5077249;28;20005;-91
2022/05/06 04:12:21;;;;;;;23.73;11.55;;;;;;;9.90;100.00;102590.84;5075940;28;20024;-90
2022/05/06 04:14:47;;;;;;;37.15;12.40;;;;;;;9.87;100.00;102584.72;5060029;28;20021;-90
2022/05/06 04:17:13;;;;;;;33.17;13.55;;;;;;;9.82;100.00;102588.31;5028364;28;20024;-90
2022/05/06 04:23:28;;;;;;;28.77;12.98;;;;;;;9.87;100.00;102582.94;5038515;28;20029;-83
2022/05/06 04:25:15;;;;;;;22.40;10.73;;;;;;;9.81;100.00;102583.91;5059111;28;20094;-83
2022/05/06 04:27:44;;;;;;;57.15;10.13;;;;;;;9.68;100.00;102595.56;5054161;28;20033;-82
2022/05/06 04:30:10;;;;;;;79.95;9.88;;;;;;;9.55;100.00;102591.31;5031151;28;20040;-82
2022/05/06 04:32:36;;;;;;;33.08;11.07;;;;;;;9.55;100.00;102604.53;5047800;28;20024;-83
2022/05/06 04:35:05;;;;;;;26.40;11.57;;;;;;;9.62;100.00;102611.50;5021073;28;20423;-83
2022/05/06 04:37:30;;;;;;;29.08;12.32;;;;;;;9.64;100.00;102601.75;5038235;28;20033;-83
2022/05/06 04:39:57;;;;;;;27.48;12.32;;;;;;;9.76;100.00;102606.03;5073565;28;20050;-83
2022/05/06 04:42:22;;;;;;;33.63;13.43;;;;;;;9.80;100.00;102608.59;5040182;28;20032;-82
2022/05/06 04:44:48;;;;;;;26.50;12.35;;;;;;;9.89;100.00;102609.41;5056274;28;20077;-82
2022/05/06 04:47:13;;;;;;;75.93;12.20;;;;;;;9.86;100.00;102610.31;5021879;28;20048;-83
2022/05/06 04:49:39;;;;;;;28.70;12.88;;;;;;;9.89;100.00;102609.41;5038274;28;20048;-83
2022/05/06 04:52:04;;;;;;;31.90;13.18;;;;;;;9.92;100.00;102612.00;5055327;28;20082;-81
2022/05/06 04:54:30;;;;;;;35.58;12.45;;;;;;;9.93;100.00;102611.97;5039153;28;20052;-82
2022/05/06 04:56:55;;;;;;;31.13;12.45;;;;;;;10.00;100.00;102607.47;5037963;28;20499;-83
2022/05/06 04:59:22;;;;;;;26.58;12.80;;;;;;;10.05;100.00;102615.34;5018539;28;20029;-82
2022/05/06 05:01:48;;;;;;;29.33;12.18;;;;;;;10.12;100.00;102606.41;5031971;28;20391;-82
2022/05/06 05:04:13;;;;;;;36.45;12.73;;;;;;;9.99;100.00;102603.94;5022630;28;20189;-82
2022/05/06 05:06:39;;;;;;;36.50;12.20;;;;;;;10.07;100.00;102617.06;5045012;28;20023;-81
2022/05/06 05:09:04;;;;;;;23.27;11.68;;;;;;;10.10;100.00;102616.16;5053882;28;20036;-82
2022/05/06 05:11:30;;;;;;;33.63;12.45;;;;;;;10.10;100.00;102617.03;5020149;28;20063;-82
2022/05/06 05:13:55;;;;;;;24.38;11.35;;;;;;;10.09;100.00;102617.94;5038575;28;20024;-82
2022/05/06 05:16:21;;;;;;;36.20;11.18;;;;;;;10.04;100.00;102616.22;5036757;28;20166;-82
2022/05/06 05:18:46;;;;;;;29.63;11.85;;;;;;;9.97;100.00;102624.28;5037141;28;20032;-82
2022/05/06 05:21:12;;;;;;;23.83;10.85;;;;;;;10.06;100.00;102620.59;5008866;28;20484;-81
2022/05/06 05:23:37;;;;;;;27.00;10.98;;;;;;;10.14;100.00;102629.31;5035438;28;20037;-82
2022/05/06 05:26:03;;;;;;;22.30;10.77;;;;;;;10.21;100.00;102624.81;5033703;28;20552;-81
2022/05/06 05:28:28;;;;;;;20.05;10.93;;;;;;;10.09;100.00;102623.22;5037637;28;20035;-83
2022/05/06 05:31:13;;;;;;;18.98;10.50;;;;;;;10.11;100.00;102625.84;5038135;28;20499;-83
2022/05/06 05:33:38;;;;;;;25.58;11.88;;;;;;;10.20;100.00;102616.91;5056293;28;20033;-91
2022/05/06 05:36:04;;;;;;;22.63;11.65;;;;;;;10.20;100.00;102625.69;5019397;28;20530;-90
2022/05/06 05:38:30;;;;;;;22.00;12.05;;;;;;;10.28;100.00;102628.22;5054024;28;20085;-91
2022/05/06 05:40:55;;;;;;;23.50;12.00;;;;;;;10.29;100.00;102630.88;5023281;28;20472;-90
2022/05/06 05:48:51;;;;;;;28.77;13.00;;;;;;;10.50;100.00;102631.47;5053413;28;20544;-83
2022/05/06 05:51:17;;;;;;;31.33;12.88;;;;;;;10.52;100.00;102634.97;5034185;28;20039;-83
2022/05/06 05:53:43;;;;;;;22.45;11.50;;;;;;;10.63;100.00;102635.66;5053204;28;20025;-82
2022/05/06 05:56:09;;;;;;;21.60;11.38;;;;;;;10.75;100.00;102636.38;5018734;28;20029;-81
2022/05/06 05:58:34;;;;;;;21.67;11.00;;;;;;;10.79;100.00;102636.31;5010946;28;20078;-81
2022/05/06 06:01:00;;;;;;;18.65;10.75;;;;;;;10.87;100.00;102632.63;5052763;28;20041;-82
2022/05/06 06:03:26;;;;;;;21.63;10.88;;;;;;;10.96;100.00;102635.16;5062595;28;20498;-83
2022/05/06 06:05:54;;;;;;;18.33;11.02;;;;;;;11.01;100.00;102632.38;5034406;28;20112;-82
2022/05/06 06:08:21;;;;;;;17.63;10.48;;;;;;;11.02;100.00;102628.84;5018969;28;20084;-82
2022/05/06 06:10:47;;;;;;;19.42;11.38;;;;;;;11.05;100.00;102629.66;5051329;28;20024;-83
2022/05/06 06:13:15;;;;;;;19.17;11.52;;;;;;;11.11;100.00;102637.53;5010478;28;20029;-83
2022/05/06 06:15:40;;;;;;;24.25;12.07;;;;;;;11.08;100.00;102629.59;5038228;28;20025;-83
2022/05/06 06:18:07;;;;;;;20.15;10.82;;;;;;;11.37;100.00;102630.84;5037915;28;20032;-83
2022/05/06 06:20:32;;;;;;;21.63;12.05;;;;;;;11.32;100.00;102632.72;5037586;28;20058;-83
2022/05/06 06:22:58;;;;;;;21.52;12.25;;;;;;;11.28;100.00;102631.88;5037498;28;20390;-83
2022/05/06 06:25:23;;;;;;;24.02;13.45;;;;;;;11.53;100.00;102634.06;5021372;28;20028;-83
2022/05/06 06:27:49;;;;;;;27.00;14.02;;;;;;;11.63;100.00;102635.63;5054714;28;20396;-83
2022/05/06 06:30:14;;;;;;;25.20;14.05;;;;;;;11.56;100.00;102641.06;5008362;28;20033;-83
2022/05/06 06:32:40;;;;;;;27.02;13.70;;;;;;;11.63;100.00;102643.56;5036782;28;20025;-83
2022/05/06 06:35:05;;;;;;;24.42;14.52;;;;;;;11.67;100.00;102643.53;5047200;28;20017;-83
2022/05/06 06:37:32;;;;;;;25.48;14.40;;;;;;;11.80;100.00;102647.66;5054229;28;20024;-83
2022/05/06 06:39:58;;;;;;;25.58;14.20;;;;;;;11.91;100.00;102656.28;5022439;28;20373;-83
2022/05/06 06:42:23;;;;;;;27.10;14.82;;;;;;;11.87;100.00;102646.63;5054690;28;20028;-83
2022/05/06 06:44:49;;;;;;;27.23;15.50;;;;;;;12.12;100.00;102649.66;5021468;28;20105;-83
2022/05/06 06:47:14;;;;;;;27.80;15.98;;;;;;;12.22;100.00;102646.81;5052574;28;20055;-83
2022/05/06 06:49:40;;;;;;;26.88;15.23;;;;;;;12.37;100.00;102648.25;5031095;28;20037;-83
2022/05/06 06:52:06;;;;;;;25.38;14.70;;;;;;;12.57;98.46;102653.94;5024134;28;20031;-83
2022/05/06 06:54:32;;;;;;;24.02;14.98;;;;;;;12.65;98.20;102659.06;5038170;28;20352;-83
2022/05/06 06:56:58;;;;;;;24.38;14.65;;;;;;;12.78;96.37;102647.22;5035509;28;20024;-83
2022/05/06 06:59:24;;;;;;;27.48;14.93;;;;;;;12.79;96.76;102648.97;5056515;28;20024;-83
2022/05/06 07:01:50;;;;;;;25.65;13.35;;;;;;;12.71;94.99;102653.63;5021525;28;20025;-83
2022/05/06 07:04:15;;;;;;;25.23;14.05;;;;;;;12.53;96.16;102651.38;5037874;28;20025;-83
2022/05/06 07:12:09;;;;;;;26.02;14.45;;;;;;;12.25;97.17;102646.72;5059267;28;20043;-83
2022/05/06 07:14:37;;;;;;;25.95;14.98;;;;;;;12.25;98.05;102655.56;5060464;28;20107;-83
2022/05/06 07:17:05;;;;;;;26.35;14.85;;;;;;;12.29;97.81;102653.72;5040700;28;20016;-83
2022/05/06 07:19:32;;;;;;;25.80;14.43;;;;;;;12.36;97.34;102654.44;5006638;28;20059;-83
2022/05/06 07:21:57;;;;;;;24.23;13.88;;;;;;;12.40;97.13;102653.47;5045680;28;20039;-83
2022/05/06 07:24:24;;;;;;;22.48;13.50;;;;;;;12.43;97.24;102659.59;5022572;28;20033;-84
2022/05/06 07:26:51;;;;;;;24.35;13.40;;;;;;;12.42;95.95;102655.19;5005952;28;20032;-82
2022/05/06 07:29:17;;;;;;;20.67;12.32;;;;;;;12.50;94.98;102656.78;5039394;28;20032;-82
2022/05/06 07:31:43;;;;;;;21.20;12.75;;;;;;;12.56;95.52;102651.34;5005806;28;20400;-83
2022/05/06 07:34:10;;;;;;;21.02;12.32;;;;;;;12.64;95.28;102641.38;5036502;28;20036;-84
2022/05/06 07:36:41;;;;;;;19.63;12.10;;;;;;;12.67;94.71;102657.22;5040496;28;20071;-82
2022/05/06 07:39:07;;;;;;;23.73;13.13;;;;;;;12.74;93.89;102647.34;5042435;28;20027;-82
2022/05/06 07:41:32;;;;;;;24.63;13.40;;;;;;;12.84;93.74;102640.88;5041689;28;20024;-82
2022/05/06 07:43:58;;;;;;;24.58;13.98;;;;;;;12.99;94.69;102641.38;5024991;28;20033;-83
2022/05/06 07:46:25;;;;;;;21.73;13.63;;;;;;;13.11;94.78;102639.28;5039980;28;20053;-83
2022/05/06 07:48:50;;;;;;;25.08;14.73;;;;;;;13.07;94.30;102642.94;5005805;28;20519;-83
2022/05/06 07:51:16;;;;;;;25.65;13.75;;;;;;;13.07;94.61;102634.97;5005590;28;20025;-83
2022/05/06 07:53:41;;;;;;;25.10;14.82;;;;;;;13.03;94.83;102638.63;5019519;28;20354;-82
2022/05/06 07:56:07;;;;;;;26.90;14.15;;;;;;;13.09;95.34;102637.56;4998516;28;20033;-83
2022/05/06 07:58:33;;;;;;;22.42;14.15;;;;;;;13.10;94.67;102640.19;5016885;28;20057;-83
2022/05/06 08:00:58;;;;;;;21.27;13.55;;;;;;;13.20;95.14;102630.19;5019190;28;20496;-83
2022/05/06 08:06:08;;;;;;;24.05;12.93;;;;;;;13.53;92.02;102635.50;5019837;28;20032;-81
2022/05/06 08:08:33;;;;;;;22.00;13.52;;;;;;;13.52;91.26;102632.91;5027608;28;20029;-81
2022/05/06 08:10:58;;;;;;;21.05;12.90;;;;;;;13.58;91.71;102628.28;5003043;28;20032;-82
2022/05/06 08:13:24;;;;;;;21.48;12.82;;;;;;;13.74;91.72;102620.69;5014336;28;20025;-83
2022/05/06 08:15:52;;;;;;;21.33;13.30;;;;;;;13.80;90.80;102626.75;5000904;28;20021;-83
2022/05/06 08:18:18;;;;;;;19.98;12.82;;;;;;;13.88;90.26;102611.44;5017861;28;20424;-83
2022/05/06 08:20:44;;;;;;;20.48;13.48;;;;;;;13.92;89.62;102613.06;5033999;28;20088;-83
2022/05/06 08:23:09;;;;;;;18.08;12.15;;;;;;;14.11;89.95;102616.03;5017201;28;20026;-82
2022/05/06 08:25:34;;;;;;;19.85;12.52;;;;;;;14.32;87.83;102611.84;4997524;28;20025;-82
2022/05/06 08:28:00;;;;;;;17.85;12.02;;;;;;;14.51;87.04;102614.75;5007946;28;20026;-82
2022/05/06 08:30:25;;;;;;;20.35;12.15;;;;;;;14.64;86.80;102623.28;4996690;28;20045;-83
2022/05/06 08:32:51;;;;;;;19.02;12.55;;;;;;;14.91;84.74;102621.44;5027766;28;20130;-83
2022/05/06 08:35:17;;;;;;;20.05;11.95;;;;;;;15.06;83.08;102621.81;5032718;28;20083;-83
2022/05/06 08:37:45;;;;;;;17.23;12.20;;;;;;;15.09;82.47;102621.72;5032611;28;20026;-83
2022/05/06 08:40:18;;;;;;;17.23;11.57;;;;;;;15.21;83.97;102621.28;5032964;28;20025;-83
2022/05/06 08:42:44;;;;;;;19.55;12.00;;;;;;;15.66;82.24;102616.09;5032469;28;20447;-84
2022/05/06 08:50:52;;;;;;;16.10;10.75;;;;;;;18.54;69.64;102612.47;5058746;28;20085;-83
2022/05/06 08:53:19;;;;;;;13.85;9.60;;;;;;;19.99;62.71;102606.66;5055521;28;20396;-83
2022/05/06 08:55:45;;;;;;;12.40;9.95;;;;;;;21.06;59.26;102604.00;5051085;28;20021;-83
2022/05/06 08:58:10;;;;;;;12.23;10.05;;;;;;;21.84;53.20;102604.56;5035571;28;20116;-83
2022/05/06 09:00:35;;;;;;;11.88;8.43;;;;;;;22.44;51.62;102608.72;5023123;28;20044;-84
2022/05/06 09:03:01;;;;;;;13.55;9.20;;;;;;;22.89;49.69;102603.84;5037985;28;20446;-84
2022/05/06 09:05:27;;;;;;;11.15;8.43;;;;;;;22.71;48.72;102602.41;5038638;28;20593;-79
2022/05/06 09:08:02;;;;;;;11.93;8.80;;;;;;;22.83;47.34;102606.13;5047929;28;20034;-77
2022/05/06 09:10:29;;;;;;;13.25;9.07;;;;;;;23.29;45.62;102597.50;5035686;28;20472;-78
2022/05/06 09:12:57;;;;;;;12.80;9.73;;;;;;;23.00;48.26;102605.78;5068957;28;20715;-77
2022/05/06 09:18:09;;;;;;;11.63;8.88;;;;;;;24.35;41.90;102596.13;5052994;28;20114;-79
2022/05/06 09:20:35;;;;;;;11.05;8.25;;;;;;;24.27;42.82;102604.84;5067007;28;20111;-84
2022/05/06 09:23:20;;;;;;;10.07;7.30;;;;;;;24.41;42.71;102592.94;5074867;28;20117;-77
2022/05/06 09:25:47;;;;;;;11.23;6.82;;;;;;;24.47;41.99;102592.47;5054745;28;20024;-78
2022/05/06 09:28:30;;;;;;;9.40;7.13;;;;;;;24.69;41.14;102602.56;5024551;28;20495;-78
2022/05/06 09:31:01;;;;;;;9.38;7.60;;;;;;;24.57;41.91;102597.19;5075069;28;20056;-78
2022/05/06 09:33:28;;;;;;;11.23;7.63;;;;;;;24.45;42.42;102601.69;5075259;28;20475;-78
2022/05/06 09:35:55;;;;;;;8.55;6.90;;;;;;;24.84;42.32;102599.63;5058336;28;20044;-78
2022/05/06 09:38:21;;;;;;;11.05;7.15;;;;;;;25.46;38.40;102598.38;5093211;28;20020;-79
2022/05/06 09:40:46;;;;;;;9.20;7.07;;;;;;;25.35;39.43;102601.03;5093302;28;20505;-79
2022/05/06 09:43:19;;;;;;;11.40;6.88;;;;;;;25.51;38.38;102595.25;5093085;28;20028;-79
2022/05/06 09:45:46;;;;;;;14.43;7.50;;;;;;;25.09;37.87;102597.69;5045163;28;20128;-79
2022/05/06 09:48:13;;;;;;;9.77;7.80;;;;;;;24.12;40.43;102585.19;5038091;28;20114;-78
2022/05/06 09:50:44;;;;;;;9.55;6.93;;;;;;;24.18;40.46;102583.84;5054684;28;20017;-78
2022/05/06 09:53:15;;;;;;;10.75;7.38;;;;;;;24.39;42.38;102584.09;5034436;28;20028;-78
2022/05/06 09:55:45;;;;;;;10.57;7.18;;;;;;;25.65;36.47;102591.41;5072060;28;20028;-79
2022/05/06 09:58:12;;;;;;;10.27;6.97;;;;;;;25.63;36.21;102585.28;5048697;28;20503;-79
2022/05/06 10:00:40;;;;;;;11.13;7.80;;;;;;;25.60;37.53;102588.22;5054946;28;20036;-78
2022/05/06 10:03:07;;;;;;;10.25;7.40;;;;;;;25.32;37.64;102585.00;5038540;28;20043;-79
2022/05/06 10:05:36;;;;;;;9.48;7.53;;;;;;;25.58;37.09;102582.94;5056705;28;20029;-79
2022/05/06 10:08:16;;;;;;;10.70;7.80;;;;;;;25.78;36.89;102586.72;5032484;28;20037;-79
2022/05/06 10:10:54;;;;;;;9.20;7.50;;;;;;;26.20;35.72;102583.28;5071812;28;20028;-79
2022/05/06 10:13:22;;;;;;;11.30;8.05;;;;;;;26.17;35.29;102573.53;5055775;28;20029;-79
2022/05/06 10:15:53;;;;;;;11.82;7.57;;;;;;;26.41;35.81;102583.34;5040576;28;20031;-79
2022/05/06 10:18:34;;;;;;;12.40;8.65;;;;;;;25.93;37.02;102581.84;5059935;28;20021;-79
2022/05/06 10:21:02;;;;;;;10.60;7.53;;;;;;;26.02;37.15;102577.53;5002857;28;20500;-80
2022/05/06 10:23:53;;;;;;;8.63;6.20;;;;;;;26.79;36.06;102567.44;5021408;28;20396;-85
2022/05/06 10:26:39;;;;;;;10.10;6.82;;;;;;;26.97;33.29;102570.41;5067690;28;20039;-80
2022/05/06 10:34:35;;;;;;;9.82;6.22;;;;;;;27.59;32.02;102567.69;5056749;28;20090;-80
2022/05/06 10:37:13;;;;;;;9.88;7.63;;;;;;;26.97;33.63;102559.53;5018493;28;20039;-80
2022/05/06 10:39:38;;;;;;;10.23;7.38;;;;;;;26.00;35.44;102553.22;5056951;28;20030;-80
2022/05/06 10:42:10;;;;;;;12.10;8.00;;;;;;;25.92;34.76;102555.75;5053518;28;20025;-79
2022/05/06 10:44:51;;;;;;;10.65;8.30;;;;;;;25.81;34.94;102559.31;5058692;28;20044;-79
2022/05/06 10:47:18;;;;;;;10.77;7.82;;;;;;;26.26;35.30;102561.03;5076312;28;20060;-79
2022/05/06 10:49:54;;;;;;;11.32;8.10;;;;;;;25.45;36.22;102555.94;5058136;28;20031;-79
2022/05/06 10:52:20;;;;;;;12.73;9.70;;;;;;;24.80;37.29;102562.94;5043544;28;20059;-79
2022/05/06 10:54:54;;;;;;;12.10;8.40;;;;;;;23.93;40.42;102564.06;5058237;28;20476;-79
2022/05/06 10:57:22;;;;;;;12.05;8.52;;;;;;;23.79;40.26;102565.06;5059374;28;20052;-79
2022/05/06 11:00:06;;;;;;;12.98;9.13;;;;;;;23.26;40.18;102559.00;5069603;28;20060;-79
2022/05/06 11:02:34;;;;;;;12.93;8.10;;;;;;;22.71;42.37;102568.19;5059866;28;20043;-79
2022/05/06 11:05:01;;;;;;;10.48;8.52;;;;;;;23.64;41.74;102558.06;5063420;28;20029;-78
2022/05/06 11:07:29;;;;;;;11.75;8.75;;;;;;;25.31;36.93;102556.19;5065359;28;20028;-79
2022/05/06 11:09:55;;;;;;;12.50;9.02;;;;;;;25.51;36.80;102550.03;5049241;28;20021;-79
2022/05/06 11:12:34;;;;;;;12.30;8.70;;;;;;;25.59;36.64;102552.13;5061246;28;20031;-79
2022/05/06 11:15:02;;;;;;;11.10;8.73;;;;;;;25.91;36.15;102547.69;5065943;28;20048;-79
2022/05/06 11:17:27;;;;;;;12.40;7.70;;;;;;;25.66;36.47;102547.88;5058065;28;20024;-79
2022/05/06 11:19:53;;;;;;;10.70;7.53;;;;;;;25.91;34.47;102536.84;5040978;28;20066;-79
2022/05/06 11:22:20;;;;;;;11.38;7.60;;;;;;;25.58;35.44;102542.25;5023435;28;20093;-79
2022/05/06 11:24:46;;;;;;;9.93;7.43;;;;;;;24.43;36.69;102535.97;5055371;28;20083;-79
2022/05/06 11:27:49;;;;;;;10.70;7.15;;;;;;;23.80;38.52;102537.03;5021197;28;20357;-79
2022/05/06 11:30:17;;;;;;;10.57;7.18;;;;;;;23.97;38.04;102537.66;5044813;28;20033;-79
2022/05/06 11:32:50;;;;;;;9.23;6.70;;;;;;;24.23;38.41;102529.38;5051371;28;20036;-79
2022/05/06 11:35:20;;;;;;;9.68;6.95;;;;;;;24.98;36.38;102541.63;5046481;28;20028;-79
2022/05/06 11:37:46;;;;;;;10.15;6.90;;;;;;;25.17;36.24;102532.91;5055060;28;20112;-79
2022/05/06 11:40:33;;;;;;;10.70;6.53;;;;;;;25.56;35.03;102535.22;5022451;28;20178;-80
2022/05/06 11:42:59;;;;;;;9.60;6.95;;;;;;;25.97;33.68;102531.78;5038326;28;20396;-79
2022/05/06 11:48:13;;;;;;;10.82;6.70;;;;;;;26.84;33.17;102521.69;5058538;28;20400;-80
2022/05/06 11:50:41;;;;;;;8.25;5.90;;;;;;;27.00;31.49;102526.66;5074264;28;20028;-80
2022/05/06 11:53:09;;;;;;;10.05;6.03;;;;;;;26.63;33.15;102525.28;5062340;28;20113;-80